sensor_id;sensor_type;location;lat;lon;timestamp;pressure;altitude;pressure_sealevel;temperature;humidity
44988;BME280;35735;52.226;21.254;2022-10-26T00:02:57;100470.03;;;13.07;100.00
44988;BME280;35735;52.226;21.254;2022-10-26T00:07:59;100468.25;;;13.01;100.00
44988;BME280;35735;52.226;21.254;2022-10-26T00:12:59;100480.06;;;12.94;100.00
44988;BME280;35735;52.226;21.254;2022-10-26T00:18:00;100482.75;;;12.97;100.00
44988;BME280;35735;52.226;21.254;2022-10-26T00:23:01;100476.34;;;13.04;100.00
44988;BME280;35735;52.226;21.254;2022-10-26T00:28:01;100479.94;;;13.09;100.00
44988;BME280;35735;52.226;21.254;2022-10-26T00:33:02;100489.81;;;13.16;100.00
44988;BME280;35735;52.226;21.254;2022-10-26T00:38:02;100493.38;;;13.20;100.00
44988;BME280;35735;52.226;21.254;2022-10-26T00:43:08;100485.22;;;13.25;100.00
44988;BME280;35735;52.226;21.254;2022-10-26T00:48:24;100496.97;;;13.24;100.00
44988;BME280;35735;52.226;21.254;2022-10-26T00:53:27;100486.09;;;13.25;100.00
44988;BME280;35735;52.226;21.254;2022-10-26T00:58:28;100488.00;;;13.17;100.00
44988;BME280;35735;52.226;21.254;2022-10-26T01:03:29;100494.31;;;13.14;100.00
44988;BME280;35735;52.226;21.254;2022-10-26T01:08:31;100492.56;;;13.13;100.00
44988;BME280;35735;52.226;21.254;2022-10-26T01:13:32;100500.69;;;13.10;100.00
44988;BME280;35735;52.226;21.254;2022-10-26T01:18:57;100491.66;;;13.11;100.00
44988;BME280;35735;52.226;21.254;2022-10-26T01:24:12;100493.56;;;13.03;100.00
44988;BME280;35735;52.226;21.254;2022-10-26T01:35:27;100492.56;;;13.13;100.00
44988;BME280;35735;52.226;21.254;2022-10-26T01:40:37;100497.00;;;13.21;100.00
44988;BME280;35735;52.226;21.254;2022-10-26T01:45:42;100505.06;;;13.27;100.00
44988;BME280;35735;52.226;21.254;2022-10-26T01:50:51;100496.88;;;13.34;100.00
44988;BME280;35735;52.226;21.254;2022-10-26T01:55:53;100495.00;;;13.40;100.00
44988;BME280;35735;52.226;21.254;2022-10-26T02:01:16;100495.94;;;13.40;100.00
44988;BME280;35735;52.226;21.254;2022-10-26T02:06:44;100493.19;;;13.43;100.00
44988;BME280;35735;52.226;21.254;2022-10-26T02:11:54;100498.56;;;13.46;100.00
44988;BME280;35735;52.226;21.254;2022-10-26T02:17:05;100502.19;;;13.48;100.00
44988;BME280;35735;52.226;21.254;2022-10-26T02:22:27;100502.09;;;13.55;100.00
44988;BME280;35735;52.226;21.254;2022-10-26T02:27:34;100506.62;;;13.54;100.00
44988;BME280;35735;52.226;21.254;2022-10-26T02:32:41;100509.28;;;13.60;100.00
44988;BME280;35735;52.226;21.254;2022-10-26T02:37:46;100518.28;;;13.62;100.00
44988;BME280;35735;52.226;21.254;2022-10-26T02:42:49;100513.75;;;13.63;100.00
44988;BME280;35735;52.226;21.254;2022-10-26T02:47:52;100509.28;;;13.59;100.00
44988;BME280;35735;52.226;21.254;2022-10-26T02:53:15;100521.91;;;13.61;100.00
44988;BME280;35735;52.226;21.254;2022-10-26T02:58:28;100524.63;;;13.60;100.00
44988;BME280;35735;52.226;21.254;2022-10-26T03:03:30;100528.31;;;13.56;100.00
44988;BME280;35735;52.226;21.254;2022-10-26T03:08:31;100528.34;;;13.49;100.00
44988;BME280;35735;52.226;21.254;2022-10-26T03:13:31;100531.16;;;13.43;100.00
44988;BME280;35735;52.226;21.254;2022-10-26T03:18:32;100534.75;;;13.45;100.00
44988;BME280;35735;52.226;21.254;2022-10-26T03:23:32;100537.44;;;13.45;100.00
44988;BME280;35735;52.226;21.254;2022-10-26T03:28:33;100539.22;;;13.48;100.00
44988;BME280;35735;52.226;21.254;2022-10-26T03:33:33;100556.38;;;13.51;100.00
44988;BME280;35735;52.226;21.254;2022-10-26T03:38:34;100555.47;;;13.51;100.00
44988;BME280;35735;52.226;21.254;2022-10-26T03:43:34;100551.84;;;13.53;100.00
44988;BME280;35735;52.226;21.254;2022-10-26T03:48:35;100554.50;;;13.58;100.00
44988;BME280;35735;52.226;21.254;2022-10-26T03:53:35;100561.72;;;13.56;100.00
44988;BME280;35735;52.226;21.254;2022-10-26T03:58:36;100559.00;;;13.58;100.00
44988;BME280;35735;52.226;21.254;2022-10-26T04:03:37;100566.28;;;13.56;100.00
44988;BME280;35735;52.226;21.254;2022-10-26T04:08:37;100569.00;;;13.52;100.00
44988;BME280;35735;52.226;21.254;2022-10-26T04:13:38;100573.63;;;13.41;100.00
44988;BME280;35735;52.226;21.254;2022-10-26T04:18:38;100572.81;;;13.31;100.00
44988;BME280;35735;52.226;21.254;2022-10-26T04:23:39;100573.72;;;13.29;100.00
44988;BME280;35735;52.226;21.254;2022-10-26T04:28:39;100576.53;;;13.18;100.00
44988;BME280;35735;52.226;21.254;2022-10-26T04:33:40;100585.56;;;13.17;100.00
44988;BME280;35735;52.226;21.254;2022-10-26T04:38:40;100590.13;;;13.10;100.00
44988;BME280;35735;52.226;21.254;2022-10-26T04:43:41;100582.91;;;13.09;100.00
44988;BME280;35735;52.226;21.254;2022-10-26T04:48:41;100591.16;;;12.94;100.00
44988;BME280;35735;52.226;21.254;2022-10-26T04:53:42;100590.28;;;12.89;100.00
44988;BME280;35735;52.226;21.254;2022-10-26T04:58:42;100595.69;;;12.89;100.00
44988;BME280;35735;52.226;21.254;2022-10-26T05:03:43;100594.75;;;12.93;100.00
44988;BME280;35735;52.226;21.254;2022-10-26T05:08:43;100604.66;;;13.02;100.00
44988;BME280;35735;52.226;21.254;2022-10-26T05:13:46;100601.94;;;13.02;100.00
44988;BME280;35735;52.226;21.254;2022-10-26T05:18:47;100618.19;;;13.02;100.00
44988;BME280;35735;52.226;21.254;2022-10-26T05:23:49;100627.25;;;12.99;100.00
44988;BME280;35735;52.226;21.254;2022-10-26T05:28:50;100624.53;;;12.97;100.00
44988;BME280;35735;52.226;21.254;2022-10-26T05:33:51;100633.66;;;12.84;100.00
44988;BME280;35735;52.226;21.254;2022-10-26T05:38:52;100636.38;;;12.79;100.00
44988;BME280;35735;52.226;21.254;2022-10-26T05:43:52;100641.78;;;12.79;100.00
44988;BME280;35735;52.226;21.254;2022-10-26T05:48:53;100641.84;;;12.73;100.00
44988;BME280;35735;52.226;21.254;2022-10-26T05:53:53;100650.00;;;12.67;100.00
44988;BME280;35735;52.226;21.254;2022-10-26T05:58:54;100655.44;;;12.61;100.00
44988;BME280;35735;52.226;21.254;2022-10-26T06:04:18;100664.47;;;12.63;100.00
44988;BME280;35735;52.226;21.254;2022-10-26T06:09:25;100669.00;;;12.58;100.00
44988;BME280;35735;52.226;21.254;2022-10-26T06:14:26;100671.69;;;12.61;100.00
44988;BME280;35735;52.226;21.254;2022-10-26T06:30:34;100686.06;;;12.82;100.00
44988;BME280;35735;52.226;21.254;2022-10-26T06:40:41;100693.25;;;12.81;100.00
44988;BME280;35735;52.226;21.254;2022-10-26T06:45:44;100695.06;;;12.82;100.00
44988;BME280;35735;52.226;21.254;2022-10-26T06:50:50;100694.19;;;12.83;100.00
44988;BME280;35735;52.226;21.254;2022-10-26T06:55:52;100697.75;;;12.88;100.00
44988;BME280;35735;52.226;21.254;2022-10-26T07:00:54;100706.78;;;12.90;100.00
44988;BME280;35735;52.226;21.254;2022-10-26T07:05:55;100714.91;;;12.89;100.00
44988;BME280;35735;52.226;21.254;2022-10-26T07:10:56;100707.63;;;13.00;100.00
44988;BME280;35735;52.226;21.254;2022-10-26T07:15:56;100711.19;;;13.10;100.00
44988;BME280;35735;52.226;21.254;2022-10-26T07:20:57;100719.25;;;13.18;100.00
44988;BME280;35735;52.226;21.254;2022-10-26T07:25:59;100721.00;;;13.32;100.00
44988;BME280;35735;52.226;21.254;2022-10-26T07:30:59;100718.25;;;13.31;100.00
44988;BME280;35735;52.226;21.254;2022-10-26T07:36:00;100725.50;;;13.30;100.00
44988;BME280;35735;52.226;21.254;2022-10-26T07:41:01;100730.94;;;13.35;100.00
44988;BME280;35735;52.226;21.254;2022-10-26T07:46:02;100728.22;;;13.37;100.00
44988;BME280;35735;52.226;21.254;2022-10-26T07:51:03;100729.09;;;13.40;100.00
44988;BME280;35735;52.226;21.254;2022-10-26T07:56:03;100738.06;;;13.51;100.00
44988;BME280;35735;52.226;21.254;2022-10-26T08:01:09;100732.59;;;13.55;100.00
44988;BME280;35735;52.226;21.254;2022-10-26T08:06:11;100730.81;;;13.57;100.00
44988;BME280;35735;52.226;21.254;2022-10-26T08:11:12;100728.87;;;13.69;100.00
44988;BME280;35735;52.226;21.254;2022-10-26T08:16:13;100737.81;;;13.82;100.00
44988;BME280;35735;52.226;21.254;2022-10-26T08:21:14;100753.09;;;13.96;100.00
44988;BME280;35735;52.226;21.254;2022-10-26T08:26:14;100749.41;;;14.01;100.00
44988;BME280;35735;52.226;21.254;2022-10-26T08:31:15;100757.50;;;14.09;100.00
44988;BME280;35735;52.226;21.254;2022-10-26T08:36:19;100760.19;;;14.12;100.00
44988;BME280;35735;52.226;21.254;2022-10-26T08:41:35;100756.59;;;14.08;100.00
44988;BME280;35735;52.226;21.254;2022-10-26T08:46:41;100756.50;;;14.16;100.00
44988;BME280;35735;52.226;21.254;2022-10-26T08:51:45;100764.66;;;14.16;100.00
44988;BME280;35735;52.226;21.254;2022-10-26T08:56:50;100762.87;;;14.15;100.00
44988;BME280;35735;52.226;21.254;2022-10-26T09:01:54;100782.75;;;14.17;100.00
44988;BME280;35735;52.226;21.254;2022-10-26T09:07:08;100785.50;;;14.14;100.00
44988;BME280;35735;52.226;21.254;2022-10-26T09:12:30;100785.53;;;14.06;100.00
44988;BME280;35735;52.226;21.254;2022-10-26T09:23:39;100798.25;;;14.00;100.00
44988;BME280;35735;52.226;21.254;2022-10-26T09:28:56;100810.94;;;13.99;100.00
44988;BME280;35735;52.226;21.254;2022-10-26T09:34:04;100810.06;;;13.96;100.00
44988;BME280;35735;52.226;21.254;2022-10-26T09:39:32;100820.94;;;13.93;100.00
44988;BME280;35735;52.226;21.254;2022-10-26T09:44:41;100828.22;;;13.87;100.00
44988;BME280;35735;52.226;21.254;2022-10-26T09:49:48;100826.41;;;13.86;100.00
44988;BME280;35735;52.226;21.254;2022-10-26T09:54:52;100835.44;;;13.92;100.00
44988;BME280;35735;52.226;21.254;2022-10-26T09:59:53;100834.50;;;13.94;100.00
44988;BME280;35735;52.226;21.254;2022-10-26T10:04:53;100834.47;;;13.99;100.00
44988;BME280;35735;52.226;21.254;2022-10-26T10:10:21;100836.34;;;13.89;100.00
44988;BME280;35735;52.226;21.254;2022-10-26T10:15:23;100838.19;;;13.87;100.00
44988;BME280;35735;52.226;21.254;2022-10-26T10:20:31;100834.53;;;13.88;100.00
44988;BME280;35735;52.226;21.254;2022-10-26T10:25:36;100839.09;;;13.84;100.00
44988;BME280;35735;52.226;21.254;2022-10-26T10:30:51;100835.44;;;13.92;100.00
44988;BME280;35735;52.226;21.254;2022-10-26T10:35:56;100835.44;;;13.92;100.00
44988;BME280;35735;52.226;21.254;2022-10-26T10:40:58;100836.25;;;14.03;100.00
44988;BME280;35735;52.226;21.254;2022-10-26T10:45:59;100838.06;;;14.04;100.00
44988;BME280;35735;52.226;21.254;2022-10-26T10:51:07;100828.09;;;14.03;100.00
44988;BME280;35735;52.226;21.254;2022-10-26T11:01:48;100830.72;;;14.15;100.00
44988;BME280;35735;52.226;21.254;2022-10-26T11:07:03;100820.66;;;14.26;100.00
44988;BME280;35735;52.226;21.254;2022-10-26T11:12:10;100823.25;;;14.43;100.00
44988;BME280;35735;52.226;21.254;2022-10-26T11:17:23;100824.97;;;14.52;100.00
44988;BME280;35735;52.226;21.254;2022-10-26T11:22:31;100821.28;;;14.59;100.00
44988;BME280;35735;52.226;21.254;2022-10-26T11:27:42;100834.84;;;14.62;100.00
44988;BME280;35735;52.226;21.254;2022-10-26T11:33:02;100832.16;;;14.61;100.00
44988;BME280;35735;52.226;21.254;2022-10-26T11:38:18;100845.66;;;14.69;100.00
44988;BME280;35735;52.226;21.254;2022-10-26T11:43:36;100839.28;;;14.71;100.00
44988;BME280;35735;52.226;21.254;2022-10-26T11:48:43;100840.16;;;14.75;100.00
44988;BME280;35735;52.226;21.254;2022-10-26T11:53:47;100836.50;;;14.79;100.00
44988;BME280;35735;52.226;21.254;2022-10-26T11:58:50;100842.81;;;14.81;100.00
44988;BME280;35735;52.226;21.254;2022-10-26T12:03:53;100843.78;;;14.75;100.00
44988;BME280;35735;52.226;21.254;2022-10-26T12:09:00;100856.50;;;14.72;100.00
44988;BME280;35735;52.226;21.254;2022-10-26T12:14:16;100853.72;;;14.76;100.00
44988;BME280;35735;52.226;21.254;2022-10-26T12:19:28;100854.66;;;14.77;100.00
44988;BME280;35735;52.226;21.254;2022-10-26T12:24:32;100848.28;;;14.76;100.00
44988;BME280;35735;52.226;21.254;2022-10-26T12:39:44;100865.66;;;14.58;100.00
44988;BME280;35735;52.226;21.254;2022-10-26T12:55:49;100862.06;;;14.53;100.00
44988;BME280;35735;52.226;21.254;2022-10-26T13:11:34;100871.16;;;14.49;100.00
44988;BME280;35735;52.226;21.254;2022-10-26T13:16:36;100874.84;;;14.42;100.00
44988;BME280;35735;52.226;21.254;2022-10-26T13:21:45;100873.03;;;14.41;100.00
44988;BME280;35735;52.226;21.254;2022-10-26T13:32:05;100863.94;;;14.46;100.00
44988;BME280;35735;52.226;21.254;2022-10-26T13:37:20;100871.16;;;14.52;100.00
44988;BME280;35735;52.226;21.254;2022-10-26T13:42:27;100864.88;;;14.44;100.00
44988;BME280;35735;52.226;21.254;2022-10-26T13:47:50;100878.50;;;14.38;100.00
44988;BME280;35735;52.226;21.254;2022-10-26T13:53:07;100880.31;;;14.37;100.00
44988;BME280;35735;52.226;21.254;2022-10-26T13:58:25;100883.94;;;14.36;100.00
44988;BME280;35735;52.226;21.254;2022-10-26T14:03:30;100880.28;;;14.45;100.00
44988;BME280;35735;52.226;21.254;2022-10-26T14:08:31;100887.50;;;14.43;100.00
44988;BME280;35735;52.226;21.254;2022-10-26T14:13:33;100885.75;;;14.39;100.00
44988;BME280;35735;52.226;21.254;2022-10-26T14:18:33;100881.25;;;14.33;100.00
44988;BME280;35735;52.226;21.254;2022-10-26T14:23:43;100875.84;;;14.32;100.00
44988;BME280;35735;52.226;21.254;2022-10-26T14:28:48;100872.25;;;14.28;100.00
44988;BME280;35735;52.226;21.254;2022-10-26T14:33:51;100883.19;;;14.16;100.00
44988;BME280;35735;52.226;21.254;2022-10-26T14:38:57;100894.09;;;14.13;100.00
44988;BME280;35735;52.226;21.254;2022-10-26T14:44:01;100885.06;;;14.07;100.00
44988;BME280;35735;52.226;21.254;2022-10-26T14:49:02;100887.87;;;13.97;100.00
44988;BME280;35735;52.226;21.254;2022-10-26T14:54:03;100890.63;;;13.89;100.00
44988;BME280;35735;52.226;21.254;2022-10-26T14:59:16;100889.75;;;13.85;100.00
44988;BME280;35735;52.226;21.254;2022-10-26T15:04:32;100896.09;;;13.81;100.00
44988;BME280;35735;52.226;21.254;2022-10-26T15:09:47;100896.16;;;13.74;100.00
44988;BME280;35735;52.226;21.254;2022-10-26T15:14:49;100904.31;;;13.63;100.00
44988;BME280;35735;52.226;21.254;2022-10-26T15:19:50;100904.41;;;13.47;100.00
44988;BME280;35735;52.226;21.254;2022-10-26T15:24:54;100909.84;;;13.40;100.00
44988;BME280;35735;52.226;21.254;2022-10-26T15:35:31;100928.87;;;13.15;100.00
44988;BME280;35735;52.226;21.254;2022-10-26T15:40:31;100926.22;;;12.98;100.00
44988;BME280;35735;52.226;21.254;2022-10-26T15:45:35;100928.03;;;12.87;100.00
44988;BME280;35735;52.226;21.254;2022-10-26T15:50:37;100937.97;;;12.72;100.00
44988;BME280;35735;52.226;21.254;2022-10-26T15:55:38;100937.06;;;12.67;100.00
44988;BME280;35735;52.226;21.254;2022-10-26T16:00:38;100951.50;;;12.66;100.00
44988;BME280;35735;52.226;21.254;2022-10-26T16:05:39;100938.87;;;12.62;100.00
44988;BME280;35735;52.226;21.254;2022-10-26T16:10:40;100946.13;;;12.60;100.00
44988;BME280;35735;52.226;21.254;2022-10-26T16:15:41;100945.19;;;12.47;100.00
44988;BME280;35735;52.226;21.254;2022-10-26T16:20:44;100944.28;;;12.34;100.00
44988;BME280;35735;52.226;21.254;2022-10-26T16:25:46;100951.50;;;12.29;100.00
44988;BME280;35735;52.226;21.254;2022-10-26T16:30:46;100963.19;;;12.08;100.00
44988;BME280;35735;52.226;21.254;2022-10-26T16:35:57;100972.16;;;11.93;100.00
44988;BME280;35735;52.226;21.254;2022-10-26T16:41:06;100977.50;;;11.84;100.00
44988;BME280;35735;52.226;21.254;2022-10-26T16:46:10;100974.75;;;11.68;100.00
44988;BME280;35735;52.226;21.254;2022-10-26T16:51:15;100970.22;;;11.60;100.00
44988;BME280;35735;52.226;21.254;2022-10-26T16:56:19;100971.06;;;11.53;100.00
44988;BME280;35735;52.226;21.254;2022-10-26T17:01:21;100975.53;;;11.41;100.00
44988;BME280;35735;52.226;21.254;2022-10-26T17:06:21;100971.84;;;11.28;100.00
44988;BME280;35735;52.226;21.254;2022-10-26T17:11:22;100976.31;;;11.23;100.00
44988;BME280;35735;52.226;21.254;2022-10-26T17:16:23;100968.13;;;11.12;100.00
44988;BME280;35735;52.226;21.254;2022-10-26T17:21:34;100982.44;;;10.96;100.00
44988;BME280;35735;52.226;21.254;2022-10-26T17:26:34;100972.47;;;10.90;100.00
44988;BME280;35735;52.226;21.254;2022-10-26T17:31:35;100990.47;;;10.88;100.00
44988;BME280;35735;52.226;21.254;2022-10-26T17:36:36;100986.84;;;10.83;100.00
44988;BME280;35735;52.226;21.254;2022-10-26T17:41:37;100992.06;;;10.62;100.00
44988;BME280;35735;52.226;21.254;2022-10-26T17:46:38;101006.31;;;10.48;100.00
44988;BME280;35735;52.226;21.254;2022-10-26T17:51:39;101005.44;;;10.49;100.00
44988;BME280;35735;52.226;21.254;2022-10-26T17:56:40;101009.75;;;10.32;100.00
44988;BME280;35735;52.226;21.254;2022-10-26T18:01:42;101016.78;;;10.17;100.00
44988;BME280;35735;52.226;21.254;2022-10-26T18:06:42;101013.03;;;10.05;100.00
44988;BME280;35735;52.226;21.254;2022-10-26T18:11:43;101009.41;;;10.01;100.00
44988;BME280;35735;52.226;21.254;2022-10-26T18:16:43;101018.28;;;9.91;100.00
44988;BME280;35735;52.226;21.254;2022-10-26T18:21:44;101017.28;;;9.84;100.00
44988;BME280;35735;52.226;21.254;2022-10-26T18:26:45;101016.31;;;9.77;100.00
44988;BME280;35735;52.226;21.254;2022-10-26T18:31:45;101027.91;;;9.72;100.00
44988;BME280;35735;52.226;21.254;2022-10-26T18:36:46;101030.53;;;9.67;100.00
44988;BME280;35735;52.226;21.254;2022-10-26T18:41:46;101032.25;;;9.59;100.00
44988;BME280;35735;52.226;21.254;2022-10-26T18:46:47;101041.97;;;9.49;100.00
44988;BME280;35735;52.226;21.254;2022-10-26T18:51:47;101050.56;;;9.23;100.00
44988;BME280;35735;52.226;21.254;2022-10-26T18:56:48;101060.22;;;9.09;100.00
44988;BME280;35735;52.226;21.254;2022-10-26T19:01:48;101063.94;;;9.16;100.00
44988;BME280;35735;52.226;21.254;2022-10-26T19:06:49;101062.06;;;9.12;100.00
44988;BME280;35735;52.226;21.254;2022-10-26T19:11:50;101078.81;;;8.95;100.00
44988;BME280;35735;52.226;21.254;2022-10-26T19:16:50;101079.59;;;8.86;100.00
44988;BME280;35735;52.226;21.254;2022-10-26T19:21:51;101076.06;;;8.89;100.00
44988;BME280;35735;52.226;21.254;2022-10-26T19:26:52;101083.16;;;8.87;100.00
44988;BME280;35735;52.226;21.254;2022-10-26T19:31:52;101081.44;;;8.89;100.00
44988;BME280;35735;52.226;21.254;2022-10-26T19:36:53;101092.81;;;8.73;100.00
44988;BME280;35735;52.226;21.254;2022-10-26T19:41:53;101103.25;;;8.56;100.00
44988;BME280;35735;52.226;21.254;2022-10-26T19:46:54;101104.84;;;8.44;100.00
44988;BME280;35735;52.226;21.254;2022-10-26T19:51:54;101115.47;;;8.40;100.00
44988;BME280;35735;52.226;21.254;2022-10-26T19:56:55;101114.53;;;8.38;100.00
44988;BME280;35735;52.226;21.254;2022-10-26T20:01:56;101120.75;;;8.35;100.00
44988;BME280;35735;52.226;21.254;2022-10-26T20:06:56;101124.44;;;8.40;100.00
44988;BME280;35735;52.226;21.254;2022-10-26T20:11:57;101116.56;;;8.48;100.00
44988;BME280;35735;52.226;21.254;2022-10-26T20:16:57;101121.94;;;8.48;100.00
44988;BME280;35735;52.226;21.254;2022-10-26T20:21:58;101134.53;;;8.49;100.00
44988;BME280;35735;52.226;21.254;2022-10-26T20:26:58;101124.53;;;8.43;100.00
44988;BME280;35735;52.226;21.254;2022-10-26T20:31:59;101128.47;;;8.61;100.00
44988;BME280;35735;52.226;21.254;2022-10-26T20:36:59;101119.53;;;8.63;100.00
44988;BME280;35735;52.226;21.254;2022-10-26T20:42:01;101135.63;;;8.59;100.00
44988;BME280;35735;52.226;21.254;2022-10-26T20:47:02;101139.91;;;8.49;100.00
44988;BME280;35735;52.226;21.254;2022-10-26T20:52:05;101138.31;;;8.60;100.00
44988;BME280;35735;52.226;21.254;2022-10-26T20:57:21;101124.97;;;8.66;100.00
44988;BME280;35735;52.226;21.254;2022-10-26T21:02:30;101127.50;;;8.57;100.00
44988;BME280;35735;52.226;21.254;2022-10-26T21:07:31;101129.25;;;8.55;100.00
44988;BME280;35735;52.226;21.254;2022-10-26T21:12:32;101133.81;;;8.59;100.00
44988;BME280;35735;52.226;21.254;2022-10-26T21:17:32;101141.75;;;8.53;100.00
44988;BME280;35735;52.226;21.254;2022-10-26T21:22:33;101147.09;;;8.50;100.00
44988;BME280;35735;52.226;21.254;2022-10-26T21:27:34;101153.25;;;8.44;100.00
44988;BME280;35735;52.226;21.254;2022-10-26T21:32:34;101144.03;;;8.33;100.00
44988;BME280;35735;52.226;21.254;2022-10-26T21:37:35;101148.56;;;8.35;100.00
44988;BME280;35735;52.226;21.254;2022-10-26T21:42:35;101148.34;;;8.25;100.00
44988;BME280;35735;52.226;21.254;2022-10-26T21:47:36;101148.97;;;8.13;100.00
44988;BME280;35735;52.226;21.254;2022-10-26T21:52:36;101150.12;;;8.24;100.00
44988;BME280;35735;52.226;21.254;2022-10-26T21:57:37;101160.03;;;8.27;100.00
44988;BME280;35735;52.226;21.254;2022-10-26T22:02:38;101166.91;;;8.12;100.00
44988;BME280;35735;52.226;21.254;2022-10-26T22:07:38;101173.97;;;8.07;100.00
44988;BME280;35735;52.226;21.254;2022-10-26T22:12:39;101172.13;;;8.06;100.00
44988;BME280;35735;52.226;21.254;2022-10-26T22:17:40;101156.97;;;8.10;100.00
44988;BME280;35735;52.226;21.254;2022-10-26T22:22:40;101167.47;;;7.97;100.00
44988;BME280;35735;52.226;21.254;2022-10-26T22:27:41;101170.16;;;7.97;100.00
44988;BME280;35735;52.226;21.254;2022-10-26T22:32:41;101167.62;;;8.04;100.00
44988;BME280;35735;52.226;21.254;2022-10-26T22:37:42;101169.34;;;8.02;100.00
44988;BME280;35735;52.226;21.254;2022-10-26T22:42:43;101168.09;;;7.86;100.00
44988;BME280;35735;52.226;21.254;2022-10-26T22:47:44;101170.59;;;7.78;100.00
44988;BME280;35735;52.226;21.254;2022-10-26T22:52:44;101178.88;;;7.87;100.00
44988;BME280;35735;52.226;21.254;2022-10-26T22:57:45;101181.63;;;7.89;100.00
44988;BME280;35735;52.226;21.254;2022-10-26T23:02:45;101180.75;;;7.91;100.00
44988;BME280;35735;52.226;21.254;2022-10-26T23:07:46;101186.81;;;7.81;100.00
44988;BME280;35735;52.226;21.254;2022-10-26T23:12:50;101181.47;;;7.83;100.00
44988;BME280;35735;52.226;21.254;2022-10-26T23:17:52;101170.41;;;7.69;100.00
44988;BME280;35735;52.226;21.254;2022-10-26T23:22:52;101161.25;;;7.60;100.00
44988;BME280;35735;52.226;21.254;2022-10-26T23:27:53;101159.47;;;7.61;100.00
44988;BME280;35735;52.226;21.254;2022-10-26T23:32:54;101156.66;;;7.56;100.00
44988;BME280;35735;52.226;21.254;2022-10-26T23:37:58;101164.59;;;7.50;100.00
44988;BME280;35735;52.226;21.254;2022-10-26T23:42:59;101161.94;;;7.52;100.00
44988;BME280;35735;52.226;21.254;2022-10-26T23:47:59;101173.50;;;7.49;100.00
44988;BME280;35735;52.226;21.254;2022-10-26T23:53:00;101170.62;;;7.41;100.00
44988;BME280;35735;52.226;21.254;2022-10-26T23:58:00;101174.88;;;7.33;100.00
